Aérodrome :
LOGIN :

S'inscrire | Disclaimer

   EN    FR    IT 

 










Légende :    VFR   VFR Marginal   IFR   IFR Intensif   IFR Très Intensif
Visi : 
Plafond : 
>= 8 km
>= 3000ft
5 à 8 km
1000 à 3000 ft
1500m à 5 km
500 à 1000 ft
800 à 1500m
200 à 500 ft
< 800m
< 200 ft
Symboles :   Orages  Brouillard  Fortes neiges  Fortes précipitations  Vent > 20 kt
SIGMETs :   Divers  Orages  Givrage  Turbulence  Onde Orograph.  Cendres Volcan.






- Altitude de l'aérodrome : 1245 ft
- Code IATA : AJR


ESNX - Arvidsjaur

DERNIER METAR :
  • 020720Z AUTO 12011KT 2400 SG SCT002/// BKN011/// BKN019/// M06/M07 Q0980 RESG

METARs EXPIRÉS :
  • 020650Z AUTO 13011KT 9999 -SN BKN011/// OVC028/// M06/M08 Q0981
  • 020620Z AUTO 12010KT 4600 -SN FEW011/// OVC030/// M06/M07 Q0981
  • 020550Z 12009KT 3500 -SN FEW008 OVC031 M07/M08 Q0982
  • 020520Z 12009KT 3000 -SN BR SCT006 SCT018 BKN028 M07/M08 Q0982
  • 020450Z 11009KT 3000 -SN BR SCT006 SCT018 BKN028 M07/M08 Q0983

TAF TAF ESNX
Valide du 02 à 06h jusqu'au 02 à 08h UTC


020530Z 0206/0208 11009KT 5000 -SN VV030
TEMPO 0206/0208 1200 SN VV012



MET'MAP, la Météo Aéronautique d'un coup d'oeil ! - Copyright ORBIFLY Décembre 2007 - Disclaimer

ORBIFLY MET'MAP TEAM :

Programmation & Développement : Alexandra Zaïnal
Sur une idée originale de : Baudouin d'Aumeries
Assistance à la programmation : Marc-Olivier Méhu
Soutien technique & logistique : Manuel Goepfert

Contact : metmap@orbifly.com




SOURCES & CREDITS :

   NOAA